Time;durP1;ratioP1;P1;durP2;ratioP2;P2;SDS_P1;SDS_P2;PMS_P1;PMS_P2;Temp;Humidity;BMP_temperature;BMP_pressure;BME280_temperature;BME280_humidity;BME280_pressure;Samples;Min_cycle;Max_cycle;Signal;HPM_P1;HPM_P2
2022/11/11 00:01:07;;;;;;;15.93;8.13;;;8.50;99.90;;;;;;5095301;28;20816;-61
2022/11/11 00:03:34;;;;;;;8.30;6.50;;;8.40;99.90;;;;;;5095481;28;20813;-61
2022/11/11 00:06:03;;;;;;;7.80;6.43;;;8.40;99.90;;;;;;5095245;28;20571;-62
2022/11/11 00:08:30;;;;;;;11.60;7.20;;;8.40;99.90;;;;;;5095322;28;20540;-60
2022/11/11 00:11:03;;;;;;;9.63;6.57;;;8.40;99.90;;;;;;5095283;28;20532;-60
2022/11/11 00:13:31;;;;;;;11.90;6.63;;;8.40;99.90;;;;;;5095026;28;20458;-61
2022/11/11 00:16:07;;;;;;;11.73;8.23;;;8.40;99.90;;;;;;5094994;28;20494;-61
2022/11/11 00:26:50;;;;;;;14.03;6.90;;;8.30;99.90;;;;;;5094673;28;20496;-60
2022/11/11 00:29:19;;;;;;;7.83;7.10;;;8.30;99.90;;;;;;5094062;28;20452;-60
2022/11/11 00:34:27;;;;;;;8.43;7.47;;;8.20;99.90;;;;;;5094263;28;20440;-60
2022/11/11 00:36:53;;;;;;;7.80;7.00;;;8.10;99.90;;;;;;5094747;28;20562;-60
2022/11/11 00:39:21;;;;;;;10.50;7.03;;;8.10;99.90;;;;;;5094879;28;20443;-61
2022/11/11 00:41:48;;;;;;;8.17;7.07;;;8.10;99.90;;;;;;5094541;28;20458;-60
2022/11/11 00:44:16;;;;;;;10.10;6.90;;;8.20;99.90;;;;;;5094737;28;20545;-61
2022/11/11 00:52:13;;;;;;;8.33;6.40;;;8.10;99.90;;;;;;5094539;28;20407;-60
2022/11/11 00:54:40;;;;;;;7.77;6.97;;;8.00;99.90;;;;;;5094354;28;20467;-60
2022/11/11 00:57:07;;;;;;;9.43;7.00;;;8.00;99.90;;;;;;5093914;28;20521;-60
2022/11/11 00:59:39;;;;;;;9.43;6.87;;;8.00;99.90;;;;;;5094616;28;20462;-60
2022/11/11 01:02:06;;;;;;;10.20;7.37;;;8.00;99.90;;;;;;5094546;28;20438;-61
2022/11/11 01:04:33;;;;;;;9.23;6.70;;;8.00;99.90;;;;;;5094489;28;20563;-61
2022/11/11 01:07:00;;;;;;;8.00;7.20;;;8.00;99.90;;;;;;5094095;28;20450;-60
2022/11/11 01:09:27;;;;;;;14.03;7.70;;;8.00;99.90;;;;;;5094314;28;20455;-60
2022/11/11 01:11:54;;;;;;;8.07;7.00;;;8.00;99.90;;;;;;5093847;28;20443;-60
2022/11/11 01:14:21;;;;;;;9.30;6.77;;;8.00;99.90;;;;;;5094277;28;20640;-61
2022/11/11 01:16:50;;;;;;;8.60;7.10;;;7.80;99.90;;;;;;5093999;28;20838;-60
2022/11/11 01:19:17;;;;;;;7.97;7.20;;;7.80;99.90;;;;;;5094033;28;20450;-61
2022/11/11 01:21:44;;;;;;;9.40;7.60;;;7.60;99.90;;;;;;5093960;28;20444;-61
2022/11/11 01:24:11;;;;;;;8.57;7.70;;;7.60;99.90;;;;;;5093959;28;20448;-60
2022/11/11 01:26:39;;;;;;;7.67;6.90;;;7.70;99.90;;;;;;5093904;28;20439;-61
2022/11/11 01:29:06;;;;;;;8.90;7.53;;;7.70;99.90;;;;;;5093588;28;20448;-60
2022/11/11 01:31:33;;;;;;;16.00;8.07;;;7.70;99.90;;;;;;5093846;28;20443;-60
2022/11/11 01:34:02;;;;;;;9.07;6.50;;;7.70;99.90;;;;;;5093687;28;20542;-60
2022/11/11 01:36:29;;;;;;;8.90;7.03;;;7.70;99.90;;;;;;5093658;28;20683;-61
2022/11/11 01:38:58;;;;;;;8.00;7.20;;;7.70;99.90;;;;;;5093859;28;20444;-60
2022/11/11 01:41:33;;;;;;;9.03;6.90;;;7.70;99.90;;;;;;5093021;28;20479;-60
2022/11/11 01:44:01;;;;;;;11.90;7.50;;;7.70;99.90;;;;;;5093473;28;20508;-61
2022/11/11 01:46:32;;;;;;;7.93;6.47;;;7.70;99.90;;;;;;5093442;28;20967;-60
2022/11/11 01:49:17;;;;;;;9.43;7.03;;;7.80;99.90;;;;;;5093332;28;20990;-60
2022/11/11 01:51:57;;;;;;;9.90;6.67;;;7.80;99.90;;;;;;5093678;28;20428;-60
2022/11/11 01:54:30;;;;;;;10.73;6.67;;;7.90;99.90;;;;;;5093616;28;20506;-60
2022/11/11 01:57:02;;;;;;;12.43;8.73;;;7.80;99.90;;;;;;5093524;28;20472;-61
2022/11/11 01:59:31;;;;;;;11.03;6.33;;;7.80;99.90;;;;;;5093450;28;20527;-61
2022/11/11 02:02:00;;;;;;;7.20;6.37;;;7.80;99.90;;;;;;5093201;28;20477;-60
2022/11/11 02:07:13;;;;;;;8.70;6.10;;;7.60;99.90;;;;;;5093171;28;20901;-60
2022/11/11 02:09:45;;;;;;;6.93;6.23;;;7.70;99.90;;;;;;5093473;28;20448;-60
2022/11/11 02:15:00;;;;;;;8.10;7.30;;;7.90;99.90;;;;;;5093616;28;20450;-60
2022/11/11 02:17:30;;;;;;;8.57;6.63;;;7.80;99.90;;;;;;5093569;28;20464;-60
2022/11/11 02:20:01;;;;;;;10.10;6.70;;;7.80;99.90;;;;;;5093427;28;20443;-61
2022/11/11 02:22:37;;;;;;;9.10;5.87;;;7.80;99.90;;;;;;5093288;28;20452;-60
2022/11/11 02:25:09;;;;;;;6.53;5.47;;;7.60;99.90;;;;;;5092944;28;20471;-60
2022/11/11 02:27:38;;;;;;;7.03;6.10;;;7.50;99.90;;;;;;5093122;28;20920;-61
2022/11/11 02:30:14;;;;;;;6.80;6.10;;;7.50;99.90;;;;;;5093144;28;20443;-60
2022/11/11 02:32:43;;;;;;;7.70;6.83;;;7.40;99.90;;;;;;5092928;28;20476;-61
2022/11/11 02:35:15;;;;;;;9.07;6.30;;;7.60;99.90;;;;;;5092787;28;20464;-60
2022/11/11 02:37:45;;;;;;;9.20;6.30;;;7.60;99.90;;;;;;5093247;28;20499;-60
2022/11/11 02:40:18;;;;;;;7.30;6.57;;;7.70;99.90;;;;;;5093171;28;20542;-60
2022/11/11 02:42:45;;;;;;;6.70;6.00;;;7.70;99.90;;;;;;5092808;28;20432;-60
2022/11/11 02:45:12;;;;;;;10.50;5.90;;;7.60;99.90;;;;;;5093106;28;20791;-61
2022/11/11 02:47:39;;;;;;;7.90;6.00;;;7.50;99.90;;;;;;5093206;28;20446;-61
2022/11/11 02:50:07;;;;;;;7.60;6.30;;;7.30;99.90;;;;;;5092657;28;20493;-61
2022/11/11 02:52:35;;;;;;;6.67;5.87;;;7.30;99.90;;;;;;5092603;28;21024;-61
2022/11/11 02:55:02;;;;;;;8.40;7.10;;;7.30;99.90;;;;;;5096762;28;20506;-60
2022/11/11 02:57:31;;;;;;;6.97;6.23;;;7.50;99.90;;;;;;5096659;28;20487;-60
2022/11/11 03:00:01;;;;;;;10.73;6.13;;;7.40;99.90;;;;;;5096533;28;20804;-60
2022/11/11 03:02:28;;;;;;;7.27;5.63;;;7.40;99.90;;;;;;5096750;28;20504;-61
2022/11/11 03:04:56;;;;;;;8.57;5.23;;;7.30;99.90;;;;;;5096553;28;20467;-61
2022/11/11 03:07:24;;;;;;;6.77;5.80;;;7.40;99.90;;;;;;5096242;28;20446;-60
2022/11/11 03:09:51;;;;;;;8.77;5.97;;;7.40;99.90;;;;;;5096640;28;20443;-61
2022/11/11 03:12:18;;;;;;;8.10;6.03;;;7.50;99.90;;;;;;5096190;28;21012;-61
2022/11/11 03:14:47;;;;;;;8.33;5.70;;;7.60;99.90;;;;;;5096396;28;20486;-61
2022/11/11 03:22:39;;;;;;;6.10;5.50;;;7.40;99.90;;;;;;5095777;28;20427;-61
2022/11/11 03:27:52;;;;;;;6.67;6.07;;;7.40;99.90;;;;;;5096029;28;20408;-61
2022/11/11 03:30:20;;;;;;;6.33;5.73;;;7.50;99.90;;;;;;5096055;28;20527;-61
2022/11/11 03:32:47;;;;;;;10.40;5.90;;;7.50;99.90;;;;;;5095924;28;20446;-61
2022/11/11 03:35:15;;;;;;;6.90;6.00;;;7.40;99.90;;;;;;5096046;28;20823;-61
2022/11/11 03:40:26;;;;;;;7.47;5.77;;;7.30;99.90;;;;;;5095837;28;20410;-61
2022/11/11 03:42:53;;;;;;;6.80;5.47;;;7.30;99.90;;;;;;5095964;28;20451;-61
2022/11/11 03:45:22;;;;;;;8.20;6.20;;;7.20;99.90;;;;;;5095715;28;20463;-62
2022/11/11 03:47:49;;;;;;;7.63;6.07;;;7.20;99.90;;;;;;5095574;28;20450;-60
2022/11/11 03:50:19;;;;;;;6.20;5.60;;;7.20;99.90;;;;;;5095508;28;20501;-60
2022/11/11 03:52:46;;;;;;;9.53;6.17;;;7.20;99.90;;;;;;5095668;28;20448;-61
2022/11/11 03:55:14;;;;;;;6.47;5.57;;;7.20;99.90;;;;;;5095654;28;20489;-60
2022/11/11 03:57:42;;;;;;;9.83;5.53;;;7.30;99.90;;;;;;5095530;28;20483;-61
2022/11/11 04:00:10;;;;;;;9.37;6.80;;;7.30;99.90;;;;;;5095400;28;20457;-60
2022/11/11 04:10:57;;;;;;;7.27;5.73;;;7.40;99.90;;;;;;5095220;28;20439;-61
2022/11/11 04:16:09;;;;;;;9.03;6.20;;;7.10;99.90;;;;;;5094921;28;20806;-61
2022/11/11 04:26:49;;;;;;;6.13;5.63;;;6.80;99.90;;;;;;5094797;28;20464;-60
2022/11/11 04:29:27;;;;;;;6.33;5.70;;;6.90;99.90;;;;;;5095031;28;20533;-61
2022/11/11 04:34:41;;;;;;;7.57;6.77;;;6.90;99.90;;;;;;5094779;28;20439;-61
2022/11/11 04:37:08;;;;;;;9.27;5.80;;;6.90;99.90;;;;;;5094568;28;20565;-61
2022/11/11 04:42:20;;;;;;;6.83;6.00;;;7.00;99.90;;;;;;5094824;28;20483;-60
2022/11/11 04:47:32;;;;;;;6.83;6.20;;;7.20;99.90;;;;;;5094688;28;20538;-61
2022/11/11 04:50:01;;;;;;;7.50;6.80;;;7.10;99.90;;;;;;5094308;28;20475;-61
2022/11/11 04:52:28;;;;;;;7.97;7.17;;;7.10;99.90;;;;;;5094319;28;20490;-60
2022/11/11 04:57:42;;;;;;;8.60;7.37;;;7.10;99.90;;;;;;5094224;28;20513;-61
2022/11/11 05:00:11;;;;;;;7.87;7.10;;;7.10;99.90;;;;;;5094442;28;20496;-61
2022/11/11 05:05:25;;;;;;;14.03;7.47;;;7.00;99.90;;;;;;5094205;28;20447;-61
2022/11/11 05:10:38;;;;;;;11.47;8.00;;;7.00;99.90;;;;;;5094098;28;20407;-60
2022/11/11 05:21:23;;;;;;;15.07;8.50;;;7.10;99.90;;;;;;5072798;28;20455;-61
2022/11/11 05:26:35;;;;;;;9.53;8.63;;;7.00;99.90;;;;;;5093762;28;20801;-61
2022/11/11 05:29:03;;;;;;;8.70;7.73;;;7.00;99.90;;;;;;5093667;28;20534;-60
2022/11/11 05:31:30;;;;;;;10.13;8.43;;;6.90;99.90;;;;;;5093771;28;20928;-60
2022/11/11 05:33:58;;;;;;;8.57;7.63;;;7.00;99.90;;;;;;5093907;28;20451;-61
2022/11/11 05:36:26;;;;;;;13.20;7.90;;;6.90;99.90;;;;;;5093497;28;20467;-61
2022/11/11 05:38:53;;;;;;;11.47;6.63;;;6.80;99.90;;;;;;5093701;28;20951;-61
2022/11/11 05:41:21;;;;;;;8.40;7.50;;;6.70;99.90;;;;;;5093741;28;20625;-61
2022/11/11 05:43:48;;;;;;;8.43;7.63;;;6.60;99.90;;;;;;5093821;28;20968;-62
2022/11/11 05:46:15;;;;;;;11.47;7.80;;;6.60;99.90;;;;;;5093643;28;20472;-62
2022/11/11 05:51:27;;;;;;;10.13;7.43;;;6.70;99.90;;;;;;5092734;28;20470;-61
2022/11/11 05:53:58;;;;;;;8.50;7.60;;;6.80;99.90;;;;;;5093499;28;20462;-61
2022/11/11 05:56:25;;;;;;;7.43;6.73;;;6.90;99.90;;;;;;5093224;28;20463;-61
2022/11/11 05:58:52;;;;;;;9.63;7.50;;;6.80;99.90;;;;;;5093409;28;20485;-60
2022/11/11 06:01:19;;;;;;;9.03;8.13;;;6.90;99.90;;;;;;5093437;28;20444;-61
2022/11/11 06:03:47;;;;;;;12.07;7.53;;;6.90;99.90;;;;;;5093156;28;20550;-60
2022/11/11 06:06:14;;;;;;;9.20;7.60;;;6.90;99.90;;;;;;5093273;28;20472;-61
2022/11/11 06:08:41;;;;;;;8.40;7.40;;;6.90;99.90;;;;;;5093157;28;20512;-61
2022/11/11 06:11:10;;;;;;;10.50;7.63;;;6.90;99.90;;;;;;5093303;28;20447;-60
2022/11/11 06:13:37;;;;;;;8.57;7.30;;;6.90;99.90;;;;;;5093178;28;20558;-60
2022/11/11 06:16:05;;;;;;;11.97;8.57;;;7.00;99.90;;;;;;5093238;28;20566;-61
2022/11/11 06:18:33;;;;;;;9.47;7.60;;;7.00;99.90;;;;;;5093250;28;20484;-61
2022/11/11 06:21:00;;;;;;;7.80;6.70;;;7.00;99.90;;;;;;5092925;28;20538;-61
2022/11/11 06:23:29;;;;;;;9.13;7.43;;;6.80;99.90;;;;;;5092516;28;20486;-60
2022/11/11 06:26:15;;;;;;;12.43;6.90;;;6.90;99.90;;;;;;5093233;28;20467;-61
2022/11/11 06:28:46;;;;;;;10.70;7.60;;;6.90;99.90;;;;;;5096904;28;20493;-61
2022/11/11 06:31:14;;;;;;;8.97;7.77;;;6.90;99.90;;;;;;5097049;28;20432;-61
2022/11/11 06:33:42;;;;;;;9.13;8.23;;;6.80;99.90;;;;;;5096677;28;20524;-61
2022/11/11 06:36:12;;;;;;;9.90;8.00;;;6.90;99.90;;;;;;5096732;28;20546;-61
2022/11/11 06:38:39;;;;;;;11.40;7.90;;;6.90;99.90;;;;;;5096691;28;20899;-61
2022/11/11 06:41:06;;;;;;;10.30;8.33;;;6.80;99.90;;;;;;5096593;28;20529;-61
2022/11/11 06:43:34;;;;;;;8.70;7.53;;;6.70;99.90;;;;;;5096750;28;20645;-62
2022/11/11 06:46:02;;;;;;;14.57;8.07;;;6.70;99.90;;;;;;5096814;28;20463;-63
2022/11/11 06:48:30;;;;;;;10.60;7.00;;;6.80;99.90;;;;;;5096834;28;20455;-61
2022/11/11 06:51:02;;;;;;;7.60;6.03;;;7.00;99.90;;;;;;5096056;28;20478;-62
2022/11/11 06:53:30;;;;;;;7.67;6.97;;;7.00;99.90;;;;;;5096255;28;20428;-61
2022/11/11 06:55:58;;;;;;;10.00;7.37;;;6.90;99.90;;;;;;5096734;28;20467;-62
2022/11/11 06:58:25;;;;;;;10.90;7.23;;;6.90;99.90;;;;;;5096325;28;20566;-61
2022/11/11 07:00:55;;;;;;;8.17;7.30;;;6.80;99.90;;;;;;5096504;28;20467;-61
2022/11/11 07:03:24;;;;;;;8.37;7.50;;;6.80;99.90;;;;;;5096172;28;20545;-61
2022/11/11 07:05:54;;;;;;;9.33;8.10;;;7.00;99.90;;;;;;5096470;28;20463;-61
2022/11/11 07:08:21;;;;;;;11.30;7.70;;;7.10;99.90;;;;;;5096219;28;20439;-62
2022/11/11 07:10:49;;;;;;;8.47;7.10;;;7.20;99.90;;;;;;5096598;28;20451;-61
2022/11/11 07:13:16;;;;;;;7.80;7.10;;;7.20;99.90;;;;;;5096106;28;20865;-61
2022/11/11 07:15:44;;;;;;;8.60;7.80;;;7.30;99.90;;;;;;5095886;28;20519;-61
2022/11/11 07:18:12;;;;;;;12.40;8.20;;;7.30;99.90;;;;;;5095798;28;20470;-62
2022/11/11 07:20:41;;;;;;;14.33;7.57;;;7.50;99.90;;;;;;5096006;28;20542;-61
2022/11/11 07:23:08;;;;;;;9.50;8.50;;;7.50;99.90;;;;;;5095594;28;20956;-62
2022/11/11 07:25:35;;;;;;;8.73;7.13;;;7.40;99.90;;;;;;5095847;28;20562;-63
2022/11/11 07:28:02;;;;;;;8.07;6.53;;;7.50;99.90;;;;;;5096178;28;20447;-62
2022/11/11 07:30:30;;;;;;;10.70;7.50;;;7.50;99.90;;;;;;5096007;28;20527;-61
2022/11/11 07:32:57;;;;;;;8.70;6.97;;;7.50;99.90;;;;;;5096153;28;20447;-63
2022/11/11 07:35:24;;;;;;;8.43;6.83;;;7.70;99.90;;;;;;5095653;28;20887;-63
2022/11/11 07:37:53;;;;;;;10.63;7.10;;;7.70;99.90;;;;;;5095478;28;20602;-61
2022/11/11 07:40:20;;;;;;;7.93;7.23;;;7.70;99.90;;;;;;5095180;28;20454;-61
2022/11/11 07:42:47;;;;;;;9.17;7.80;;;7.80;99.90;;;;;;5095552;28;20526;-61
2022/11/11 07:45:15;;;;;;;10.63;8.27;;;7.90;99.90;;;;;;5095552;28;20475;-62
2022/11/11 07:47:45;;;;;;;8.90;6.83;;;8.00;99.90;;;;;;5095666;28;20455;-60
2022/11/11 07:50:13;;;;;;;9.03;7.23;;;8.00;99.90;;;;;;5095220;28;20479;-62
2022/11/11 07:52:40;;;;;;;9.63;8.23;;;8.00;99.90;;;;;;5095174;28;20511;-61
2022/11/11 07:55:09;;;;;;;8.03;6.90;;;8.00;99.90;;;;;;5095396;28;20495;-61
2022/11/11 07:57:37;;;;;;;8.30;7.13;;;7.90;99.90;;;;;;5095621;28;20483;-61
2022/11/11 08:00:07;;;;;;;9.47;8.10;;;8.00;99.90;;;;;;5095119;28;20829;-61
2022/11/11 08:02:34;;;;;;;11.23;7.40;;;8.00;99.90;;;;;;5094851;28;20922;-61
2022/11/11 08:05:01;;;;;;;10.50;8.33;;;8.10;99.90;;;;;;5095357;28;20459;-61
2022/11/11 08:07:28;;;;;;;8.93;7.67;;;8.30;99.90;;;;;;5095125;28;20440;-61
2022/11/11 08:09:55;;;;;;;8.40;7.43;;;8.50;99.90;;;;;;5094906;28;20453;-61
2022/11/11 08:15:09;;;;;;;7.60;6.60;;;8.70;99.90;;;;;;5095147;28;20443;-61
2022/11/11 08:17:39;;;;;;;10.80;7.20;;;8.60;99.90;;;;;;5094755;28;20478;-61
2022/11/11 08:20:09;;;;;;;7.30;6.10;;;8.60;99.90;;;;;;5094625;28;20444;-61
2022/11/11 08:22:37;;;;;;;8.63;7.23;;;8.80;99.90;;;;;;5095016;28;20520;-61
2022/11/11 08:25:09;;;;;;;7.93;7.13;;;8.90;99.90;;;;;;5094770;28;20463;-62
2022/11/11 08:27:42;;;;;;;8.40;6.93;;;9.00;99.90;;;;;;5094584;28;20439;-61
2022/11/11 08:30:11;;;;;;;7.27;6.03;;;9.10;99.90;;;;;;5094823;28;20463;-61
2022/11/11 08:32:38;;;;;;;6.50;5.90;;;9.10;99.90;;;;;;5093585;28;20504;-61
2022/11/11 08:35:06;;;;;;;8.13;6.17;;;9.10;99.90;;;;;;5094701;28;20819;-61
2022/11/11 08:37:33;;;;;;;8.93;5.70;;;9.20;99.90;;;;;;5094617;28;20447;-61
2022/11/11 08:40:01;;;;;;;7.70;6.50;;;9.40;99.90;;;;;;5094497;28;20486;-61
2022/11/11 08:42:28;;;;;;;14.47;6.17;;;9.30;99.90;;;;;;5094393;28;20973;-61
2022/11/11 08:45:02;;;;;;;9.00;5.90;;;9.40;99.90;;;;;;5094083;28;20486;-61
2022/11/11 08:47:30;;;;;;;8.60;5.90;;;9.50;99.90;;;;;;5094372;28;20459;-60
2022/11/11 08:50:01;;;;;;;7.33;6.10;;;9.50;99.90;;;;;;5093712;28;20511;-61
2022/11/11 08:52:28;;;;;;;7.40;6.40;;;9.50;99.90;;;;;;5093362;28;20447;-61
2022/11/11 08:54:56;;;;;;;6.40;5.60;;;9.50;99.90;;;;;;5094142;28;20554;-61
2022/11/11 08:57:23;;;;;;;7.20;5.93;;;9.40;99.90;;;;;;5094537;28;20444;-61
2022/11/11 08:59:50;;;;;;;9.00;5.80;;;9.40;99.90;;;;;;5094176;28;20443;-61
2022/11/11 09:02:19;;;;;;;10.80;5.47;;;9.30;99.90;;;;;;5093986;28;20930;-61
2022/11/11 09:04:46;;;;;;;8.30;6.47;;;9.40;99.90;;;;;;5093627;28;20610;-61
2022/11/11 09:07:13;;;;;;;9.87;7.57;;;9.50;99.90;;;;;;5094307;28;20455;-60
2022/11/11 09:09:41;;;;;;;15.20;7.20;;;9.50;99.90;;;;;;5093846;28;20447;-61
2022/11/11 09:12:08;;;;;;;6.87;6.17;;;9.50;99.90;;;;;;5094167;28;20530;-60
2022/11/11 09:14:35;;;;;;;7.80;7.10;;;9.60;99.90;;;;;;5094316;28;20554;-60
2022/11/11 09:17:02;;;;;;;6.20;5.60;;;9.40;99.90;;;;;;5093792;28;20813;-61
2022/11/11 09:19:31;;;;;;;9.50;6.93;;;9.30;99.90;;;;;;5093602;28;20484;-61
2022/11/11 09:21:58;;;;;;;6.90;6.10;;;9.40;99.90;;;;;;5093749;28;20937;-61
2022/11/11 09:24:25;;;;;;;6.63;5.70;;;9.50;99.90;;;;;;5093340;28;20451;-61
2022/11/11 09:26:53;;;;;;;8.40;6.33;;;9.70;99.90;;;;;;5093847;28;20799;-62
2022/11/11 09:29:20;;;;;;;8.23;7.03;;;9.70;99.90;;;;;;5093855;28;20451;-61
2022/11/11 09:31:47;;;;;;;8.23;7.53;;;9.80;99.90;;;;;;5093816;28;20443;-61
2022/11/11 09:34:14;;;;;;;10.27;7.23;;;9.80;99.90;;;;;;5093296;28;20542;-61
2022/11/11 09:36:43;;;;;;;8.67;6.90;;;9.90;99.90;;;;;;5093827;28;20538;-61
2022/11/11 09:39:10;;;;;;;7.27;6.57;;;10.00;99.90;;;;;;5093689;28;20475;-62
2022/11/11 09:41:48;;;;;;;7.33;6.50;;;10.10;99.90;;;;;;5093623;28;20452;-62
2022/11/11 09:44:30;;;;;;;9.17;6.40;;;10.10;99.90;;;;;;5093142;28;20463;-61
2022/11/11 09:47:04;;;;;;;8.43;6.20;;;10.30;99.90;;;;;;5093189;28;20442;-60
2022/11/11 09:49:54;;;;;;;9.43;6.57;;;10.20;99.90;;;;;;5093318;28;20502;-60
2022/11/11 09:52:29;;;;;;;11.13;6.97;;;10.20;99.90;;;;;;5093077;28;20424;-60
2022/11/11 09:54:59;;;;;;;8.60;7.27;;;10.30;99.90;;;;;;5093262;28;20972;-61
2022/11/11 09:57:35;;;;;;;8.17;6.37;;;10.50;99.90;;;;;;5093270;28;20459;-61
2022/11/11 10:00:08;;;;;;;7.80;7.10;;;10.60;99.90;;;;;;5093108;28;20468;-61
2022/11/11 10:02:41;;;;;;;7.93;7.13;;;10.80;99.90;;;;;;5092990;28;20451;-59
2022/11/11 10:05:12;;;;;;;8.50;7.70;;;10.80;99.90;;;;;;5092945;28;20463;-60
2022/11/11 10:07:46;;;;;;;7.80;6.80;;;11.10;99.90;;;;;;5093376;28;20431;-59
2022/11/11 10:10:21;;;;;;;9.83;7.27;;;11.10;99.90;;;;;;5093271;28;20594;-60
2022/11/11 10:12:55;;;;;;;10.17;7.27;;;11.20;99.90;;;;;;5093123;28;20430;-62
2022/11/11 10:15:29;;;;;;;9.33;6.30;;;11.30;99.90;;;;;;5093216;28;20458;-61
2022/11/11 10:18:28;;;;;;;8.27;6.30;;;11.40;99.90;;;;;;5093188;28;20485;-60
2022/11/11 10:20:56;;;;;;;8.93;6.63;;;11.60;99.90;;;;;;5092533;28;20891;-61
2022/11/11 10:23:30;;;;;;;19.00;7.20;;;11.80;99.90;;;;;;5092777;28;20447;-60
2022/11/11 10:26:02;;;;;;;8.57;6.87;;;12.00;99.90;;;;;;5092529;28;20471;-60
2022/11/11 10:28:35;;;;;;;8.90;6.63;;;12.30;99.90;;;;;;5093089;28;20840;-60
2022/11/11 10:31:06;;;;;;;8.60;6.40;;;13.00;99.90;;;;;;5092588;28;20511;-60
2022/11/11 10:33:48;;;;;;;10.23;6.87;;;13.60;99.90;;;;;;5093071;28;20428;-60
2022/11/11 10:36:19;;;;;;;9.50;7.70;;;14.30;99.90;;;;;;5092976;28;20463;-60
2022/11/11 10:38:54;;;;;;;12.93;7.30;;;15.20;99.90;;;;;;5092638;28;20468;-60
2022/11/11 10:41:27;;;;;;;12.03;6.80;;;15.90;99.90;;;;;;5093100;28;20514;-60
2022/11/11 10:43:54;;;;;;;10.77;6.37;;;16.20;99.90;;;;;;5092649;28;20455;-61
2022/11/11 10:46:26;;;;;;;8.97;6.30;;;16.40;99.90;;;;;;5092521;28;20464;-60
2022/11/11 10:48:59;;;;;;;7.77;6.97;;;16.60;99.90;;;;;;5092974;28;20435;-61
2022/11/11 10:51:29;;;;;;;12.60;7.37;;;16.00;99.90;;;;;;5092571;28;20523;-61
2022/11/11 10:54:07;;;;;;;11.70;6.90;;;16.10;99.90;;;;;;5092383;28;20442;-60
2022/11/11 10:56:42;;;;;;;8.40;6.83;;;16.10;99.90;;;;;;5092698;28;20473;-61
2022/11/11 10:59:18;;;;;;;10.03;6.17;;;15.90;99.90;;;;;;5092832;28;20463;-60
2022/11/11 11:01:55;;;;;;;12.67;6.53;;;16.00;99.90;;;;;;5092936;28;20969;-61
2022/11/11 11:04:31;;;;;;;7.20;6.70;;;16.50;99.90;;;;;;5092163;28;20438;-60
2022/11/11 11:07:01;;;;;;;6.87;6.27;;;17.20;99.90;;;;;;5092635;28;20502;-60
2022/11/11 11:09:37;;;;;;;7.33;6.43;;;17.20;99.90;;;;;;5092698;28;20439;-60
2022/11/11 11:12:09;;;;;;;6.50;5.73;;;16.90;99.90;;;;;;5092785;28;20431;-60
2022/11/11 11:14:38;;;;;;;10.17;7.17;;;;;;;;;;5093912;28;20522;-60
2022/11/11 11:17:12;;;;;;;7.30;5.70;;;17.60;99.90;;;;;;5095818;28;20443;-60
2022/11/11 11:19:39;;;;;;;6.37;5.87;;;18.50;99.90;;;;;;5096339;28;20788;-60
2022/11/11 11:22:06;;;;;;;13.70;7.13;;;17.40;99.90;;;;;;5095881;28;20538;-60
2022/11/11 11:24:37;;;;;;;9.00;7.53;;;17.30;99.90;;;;;;5095536;28;21029;-60
2022/11/11 11:27:07;;;;;;;10.00;6.07;;;17.00;99.90;;;;;;5096049;28;20459;-60
2022/11/11 11:29:36;;;;;;;7.90;5.80;;;16.80;99.90;;;;;;5095723;28;20447;-60
2022/11/11 11:32:15;;;;;;;9.53;6.00;;;16.50;99.90;;;;;;5095988;28;20475;-60
2022/11/11 11:34:48;;;;;;;10.13;6.90;;;16.00;99.90;;;;;;5095948;28;20547;-61
2022/11/11 11:37:16;;;;;;;8.20;5.93;;;15.70;99.90;;;;;;5095882;28;20451;-60
2022/11/11 11:39:45;;;;;;;9.30;5.83;;;15.50;99.90;;;;;;5095712;28;20898;-60
2022/11/11 11:42:28;;;;;;;6.83;6.23;;;15.40;99.90;;;;;;5096009;28;20537;-61
2022/11/11 11:44:55;;;;;;;8.13;7.03;;;15.20;99.90;;;;;;5096012;28;20953;-62
2022/11/11 11:47:35;;;;;;;8.30;6.27;;;14.90;99.90;;;;;;5095630;28;20443;-61
2022/11/11 11:50:21;;;;;;;7.27;6.57;;;14.70;99.90;;;;;;5095539;28;20474;-61
2022/11/11 11:53:00;;;;;;;8.97;6.80;;;14.50;99.90;;;;;;5095367;28;20423;-60
2022/11/11 11:55:33;;;;;;;16.47;14.23;;;14.60;99.90;;;;;;5094873;28;20541;-61
2022/11/11 11:58:19;;;;;;;12.20;7.60;;;14.80;99.90;;;;;;5094985;28;20981;-61
2022/11/11 12:00:59;;;;;;;14.20;8.03;;;14.70;99.90;;;;;;5094810;28;20825;-61
2022/11/11 12:04:00;;;;;;;25.70;8.50;;;14.70;99.90;;;;;;5095243;28;20430;-60
2022/11/11 12:06:35;;;;;;;8.20;7.40;;;14.80;99.90;;;;;;5095022;28;20881;-59
2022/11/11 12:09:15;;;;;;;11.33;8.20;;;14.90;99.90;;;;;;5094987;28;20415;-59
2022/11/11 12:11:51;;;;;;;8.37;6.47;;;15.10;99.90;;;;;;5095196;28;20474;-59
2022/11/11 12:14:35;;;;;;;9.03;7.13;;;15.00;99.90;;;;;;5094448;28;20473;-59
2022/11/11 12:17:11;;;;;;;8.30;7.50;;;15.10;99.90;;;;;;5094964;28;20855;-60
2022/11/11 12:19:53;;;;;;;10.80;7.10;;;15.00;99.90;;;;;;5094218;28;20467;-60
2022/11/11 12:22:39;;;;;;;14.87;8.00;;;14.60;99.90;;;;;;5094357;28;20469;-59
2022/11/11 12:25:16;;;;;;;7.80;7.10;;;14.70;99.90;;;;;;5094148;28;20962;-59
2022/11/11 12:27:56;;;;;;;13.20;7.93;;;14.70;99.90;;;;;;5094792;28;20515;-59
2022/11/11 12:30:27;;;;;;;13.23;7.60;;;14.80;99.90;;;;;;5094214;28;20424;-59
2022/11/11 12:33:27;;;;;;;12.13;8.20;;;14.70;99.90;;;;;;5094784;28;20436;-60
2022/11/11 12:36:06;;;;;;;10.50;8.80;;;14.40;99.90;;;;;;5094352;28;20554;-60
2022/11/11 12:38:51;;;;;;;8.83;7.50;;;14.00;99.90;;;;;;5094116;28;20443;-60
2022/11/11 12:41:28;;;;;;;12.93;7.63;;;14.10;99.90;;;;;;5085563;28;20852;-60
2022/11/11 12:44:04;;;;;;;9.87;7.33;;;14.10;99.90;;;;;;5099531;28;20494;-60
2022/11/11 12:46:42;;;;;;;9.57;8.17;;;14.20;99.90;;;;;;5089703;28;20456;-60
2022/11/11 12:49:26;;;;;;;12.70;8.00;;;14.10;99.90;;;;;;5073552;28;20429;-60
2022/11/11 12:52:04;;;;;;;12.30;8.03;;;14.20;99.90;;;;;;5073797;28;20811;-60
2022/11/11 12:54:43;;;;;;;7.67;6.90;;;14.20;99.90;;;;;;5080362;28;20931;-56
2022/11/11 12:57:22;;;;;;;12.70;7.67;;;14.30;99.90;;;;;;5078064;28;20525;-57
2022/11/11 13:00:09;;;;;;;9.30;8.27;;;14.40;99.90;;;;;;5082935;28;20463;-55
2022/11/11 13:02:58;;;;;;;12.10;8.57;;;14.40;99.90;;;;;;5087125;28;20967;-61
2022/11/11 13:05:31;;;;;;;12.50;7.40;;;14.40;99.90;;;;;;5080849;28;20477;-56
2022/11/11 13:08:21;;;;;;;10.53;7.67;;;14.30;99.90;;;;;;5088667;28;20521;-57
2022/11/11 13:10:56;;;;;;;7.70;6.90;;;14.30;99.90;;;;;;5075032;28;20492;-54
2022/11/11 13:13:45;;;;;;;10.97;6.40;;;14.40;99.90;;;;;;5073635;28;20468;-48
2022/11/11 13:16:17;;;;;;;9.63;7.33;;;14.40;99.90;;;;;;5073698;28;20502;-48
2022/11/11 13:18:54;;;;;;;11.23;6.53;;;14.50;99.90;;;;;;5068423;28;20448;-49
2022/11/11 13:21:26;;;;;;;6.57;5.93;;;14.50;99.90;;;;;;5078854;28;20447;-50
2022/11/11 13:23:53;;;;;;;9.17;7.20;;;14.80;99.90;;;;;;5071736;28;20539;-56
2022/11/11 13:26:31;;;;;;;10.00;6.87;;;15.00;99.90;;;;;;5073340;28;20471;-53
2022/11/11 13:29:18;;;;;;;7.47;6.73;;;15.10;99.90;;;;;;5084972;28;20836;-56
2022/11/11 13:31:48;;;;;;;9.27;6.03;;;15.60;99.90;;;;;;5070095;28;20459;-48
2022/11/11 13:34:17;;;;;;;8.93;7.00;;;15.60;99.90;;;;;;5074496;28;20491;-53
2022/11/11 13:36:49;;;;;;;7.10;6.40;;;15.30;99.90;;;;;;5081476;28;20829;-53
2022/11/11 13:39:29;;;;;;;8.80;6.63;;;15.00;99.90;;;;;;5078672;28;21060;-48
2022/11/11 13:41:57;;;;;;;12.70;6.47;;;14.80;99.90;;;;;;5074529;28;20460;-54
2022/11/11 13:44:28;;;;;;;7.10;5.47;;;14.60;99.90;;;;;;5076257;28;20459;-50
2022/11/11 13:47:04;;;;;;;5.90;5.30;;;14.50;99.90;;;;;;5071692;28;20476;-50
2022/11/11 13:49:35;;;;;;;5.67;5.13;;;14.50;99.90;;;;;;5075033;28;20892;-55
2022/11/11 13:52:05;;;;;;;6.13;5.03;;;14.50;99.90;;;;;;5068632;28;20449;-50
2022/11/11 13:54:36;;;;;;;7.23;5.87;;;14.50;99.90;;;;;;5069945;28;20452;-52
2022/11/11 13:57:07;;;;;;;6.70;6.00;;;14.60;99.90;;;;;;5070858;28;20485;-54
2022/11/11 13:59:38;;;;;;;6.57;5.10;;;14.60;99.90;;;;;;5074417;28;20475;-54
2022/11/11 14:02:34;;;;;;;6.80;5.70;;;14.70;99.90;;;;;;5067726;28;20483;-56
2022/11/11 14:05:17;;;;;;;7.13;5.30;;;14.60;99.90;;;;;;5057496;28;20630;-52
2022/11/11 14:07:50;;;;;;;7.23;6.00;;;14.60;99.90;;;;;;5073734;28;20889;-52
2022/11/11 14:10:51;;;;;;;9.20;6.00;;;14.50;99.90;;;;;;5076795;28;20484;-51
2022/11/11 14:13:41;;;;;;;5.80;5.30;;;14.50;99.90;;;;;;5067787;28;20471;-48
2022/11/11 14:16:52;;;;;;;5.57;5.07;;;14.60;99.90;;;;;;5077455;28;20489;-53
2022/11/11 14:19:38;;;;;;;7.00;5.40;;;14.50;99.90;;;;;;5071995;28;20483;-55
2022/11/11 14:22:30;;;;;;;8.30;5.23;;;14.40;99.90;;;;;;5082514;28;20482;-52
2022/11/11 14:25:20;;;;;;;13.30;5.70;;;14.50;99.90;;;;;;5073826;28;20593;-54
2022/11/11 14:27:48;;;;;;;7.50;5.63;;;14.50;99.90;;;;;;5069753;28;20464;-54
2022/11/11 14:30:38;;;;;;;9.07;6.17;;;14.30;99.90;;;;;;5076080;28;20452;-50
2022/11/11 14:33:16;;;;;;;7.10;5.97;;;14.30;99.90;;;;;;5070257;28;20949;-50
2022/11/11 14:35:57;;;;;;;8.60;5.80;;;14.20;99.90;;;;;;5089594;28;20490;-53
2022/11/11 14:38:49;;;;;;;6.77;5.60;;;14.20;99.90;;;;;;5073495;28;20448;-49